createdAt,value
2017-10-18T00:00:13.177Z,71.75
2017-10-18T00:01:15.825Z,88.50
2017-10-18T00:02:19.573Z,79.07
2017-10-18T00:03:22.149Z,88.65
2017-10-18T00:04:25.451Z,81.82
2017-10-18T00:05:29.029Z,72.57
2017-10-18T00:06:32.369Z,69.25
2017-10-18T00:07:34.932Z,73.50
2017-10-18T00:08:37.688Z,98.57
2017-10-18T00:09:40.563Z,100.32
2017-10-18T00:10:43.077Z,63.53
2017-10-18T00:11:45.591Z,77.93
2017-10-18T00:12:48.863Z,70.80
2017-10-18T00:13:53.245Z,89.70
2017-10-18T00:14:56.595Z,103.82
2017-10-18T00:15:59.089Z,72.07
2017-10-18T00:17:01.590Z,77.85
2017-10-18T00:18:05.010Z,77.28
2017-10-18T00:19:07.491Z,66.57
2017-10-18T00:20:10.778Z,69.60
2017-10-18T00:21:13.263Z,69.35
2017-10-18T00:22:15.891Z,68.90
2017-10-18T00:23:18.388Z,72.97
2017-10-18T00:24:20.924Z,77.35
2017-10-18T00:25:23.488Z,67.25
2017-10-18T00:26:26.007Z,82.60
2017-10-18T00:27:28.799Z,60.95
2017-10-18T00:28:32.105Z,85.03
2017-10-18T00:29:34.660Z,77.40
2017-10-18T00:30:38.014Z,68.87
2017-10-18T00:31:40.618Z,70.40
2017-10-18T00:32:45.051Z,70.78
2017-10-18T00:33:47.639Z,86.45
2017-10-18T00:34:51.760Z,66.75
2017-10-18T00:35:54.659Z,78.50
2017-10-18T00:36:59.092Z,70.53
2017-10-18T00:38:02.507Z,69.53
2017-10-18T00:39:05.086Z,71.95
2017-10-18T00:40:07.623Z,67.97
2017-10-18T00:41:11.939Z,54.17
2017-10-18T00:42:14.511Z,86.90
2017-10-18T00:43:17.018Z,64.55
2017-10-18T00:44:20.565Z,71.07
2017-10-18T00:45:23.230Z,84.30
2017-10-18T00:46:25.829Z,88.18
2017-10-18T00:47:29.614Z,65.12
2017-10-18T00:48:32.107Z,94.70
2017-10-18T00:49:34.597Z,84.87
2017-10-18T00:50:37.944Z,83.32
2017-10-18T00:51:41.453Z,85.55
2017-10-18T00:52:43.967Z,80.28
2017-10-18T00:53:46.660Z,80.55
2017-10-18T00:54:49.145Z,82.00
2017-10-18T00:55:53.998Z,89.65
2017-10-18T00:56:57.272Z,88.05
2017-10-18T00:57:59.791Z,67.53
2017-10-18T00:59:02.384Z,86.25
2017-10-18T01:00:04.924Z,67.37
2017-10-18T01:01:07.472Z,72.07
2017-10-18T01:02:10.041Z,79.40
2017-10-18T01:03:12.572Z,81.05
2017-10-18T01:04:19.861Z,75.95
2017-10-18T01:05:23.149Z,78.68
2017-10-18T01:06:32.197Z,98.18
2017-10-18T01:07:34.684Z,84.03
2017-10-18T01:08:37.197Z,94.95
2017-10-18T01:09:40.506Z,75.47
2017-10-18T01:10:45.068Z,82.65
2017-10-18T01:11:47.565Z,82.78
2017-10-18T01:12:55.817Z,84.72
2017-10-18T01:13:58.302Z,74.95
2017-10-18T01:15:00.917Z,77.45
2017-10-18T01:16:03.689Z,74.75
2017-10-18T01:17:17.034Z,70.25
2017-10-18T01:18:19.542Z,70.28
2017-10-18T01:19:22.033Z,106.47
2017-10-18T01:20:25.353Z,64.37
2017-10-18T01:21:29.969Z,76.18
2017-10-18T01:22:32.537Z,75.43
2017-10-18T01:23:36.058Z,84.95
2017-10-18T01:24:38.574Z,83.00
2017-10-18T01:25:46.242Z,77.50
2017-10-18T01:26:49.535Z,72.97
2017-10-18T01:27:55.516Z,83.75
2017-10-18T01:28:58.014Z,65.22
2017-10-18T01:30:00.519Z,71.00
2017-10-18T01:31:03.018Z,80.85
2017-10-18T01:32:18.574Z,68.15
2017-10-18T01:33:21.068Z,73.55
2017-10-18T01:34:30.165Z,60.88
2017-10-18T01:35:32.672Z,87.28
2017-10-18T01:36:53.071Z,69.65
2017-10-18T01:37:56.383Z,76.80
2017-10-18T01:38:59.977Z,71.85
2017-10-18T01:40:02.541Z,69.57
2017-10-18T01:41:10.899Z,73.87
2017-10-18T01:42:14.259Z,70.78
2017-10-18T01:43:16.753Z,77.85
2017-10-18T01:44:38.114Z,73.82
2017-10-18T01:45:40.609Z,75.57
2017-10-18T01:46:46.287Z,85.40
2017-10-18T01:47:49.844Z,103.28
2017-10-18T01:48:53.115Z,77.12
2017-10-18T01:49:55.612Z,88.47
2017-10-18T01:50:58.881Z,78.03
2017-10-18T01:52:02.423Z,83.57
2017-10-18T01:53:04.996Z,84.30
2017-10-18T01:54:07.557Z,101.55
2017-10-18T01:55:10.274Z,88.05
2017-10-18T01:56:14.936Z,89.97
2017-10-18T01:57:17.487Z,85.72
2017-10-18T01:58:34.309Z,83.50
2017-10-18T01:59:36.801Z,82.75
2017-10-18T02:00:39.288Z,110.12
2017-10-18T02:01:41.785Z,87.95
2017-10-18T02:02:45.042Z,79.62
2017-10-18T02:03:47.523Z,77.97
2017-10-18T02:04:50.862Z,77.40
2017-10-18T02:05:53.603Z,76.87
2017-10-18T02:06:57.143Z,73.72
2017-10-18T02:07:59.659Z,95.68
2017-10-18T02:09:02.176Z,76.80
2017-10-18T02:10:04.673Z,62.95
2017-10-18T02:11:07.975Z,83.20
2017-10-18T02:12:10.493Z,74.68
2017-10-18T02:13:13.010Z,72.47
2017-10-18T02:14:15.580Z,68.43
2017-10-18T02:15:19.101Z,80.00
2017-10-18T02:16:21.631Z,87.12
2017-10-18T02:17:25.224Z,99.30
2017-10-18T02:18:27.769Z,104.35
2017-10-18T02:19:31.021Z,87.30
2017-10-18T02:20:33.541Z,96.65
2017-10-18T02:21:40.665Z,85.28
2017-10-18T02:22:43.179Z,84.40
2017-10-18T02:23:45.948Z,102.97
2017-10-18T02:24:48.445Z,104.95
2017-10-18T02:25:51.076Z,91.87
2017-10-18T02:26:54.335Z,92.25
2017-10-18T02:27:57.598Z,99.35
2017-10-18T02:29:00.122Z,105.25
2017-10-18T02:30:04.594Z,116.40
2017-10-18T02:31:07.915Z,111.97
2017-10-18T02:32:11.450Z,125.03
2017-10-18T02:33:13.932Z,103.40
2017-10-18T02:34:17.251Z,165.60
2017-10-18T02:35:19.752Z,131.82
2017-10-18T02:36:22.591Z,142.02
2017-10-18T02:37:25.133Z,117.80
2017-10-18T02:38:27.622Z,131.63
2017-10-18T02:39:30.122Z,193.60
2017-10-18T02:40:32.720Z,320.33
2017-10-18T02:41:35.228Z,326.12
2017-10-18T02:42:37.747Z,263.50
2017-10-18T02:43:40.261Z,236.27
2017-10-18T02:44:42.781Z,361.12
2017-10-18T02:45:45.309Z,377.38
2017-10-18T02:46:47.804Z,381.95
2017-10-18T02:47:50.331Z,300.23
2017-10-18T02:48:53.910Z,559.10
2017-10-18T02:50:00.574Z,505.75
2017-10-18T02:51:06.878Z,362.88
2017-10-18T02:52:09.395Z,481.65
2017-10-18T02:53:11.924Z,566.72
2017-10-18T02:54:15.196Z,597.65
2017-10-18T02:55:19.047Z,569.72
2017-10-18T02:56:21.650Z,503.02
2017-10-18T02:57:26.456Z,640.55
2017-10-18T02:58:29.506Z,409.33
2017-10-18T02:59:40.477Z,292.73
2017-10-18T03:00:43.037Z,377.30
2017-10-18T03:01:46.590Z,394.75
2017-10-18T03:02:49.931Z,358.75
2017-10-18T03:03:52.483Z,385.35
2017-10-18T03:04:55.142Z,624.50
2017-10-18T03:05:59.660Z,470.52
2017-10-18T03:07:02.198Z,258.63
2017-10-18T03:08:04.737Z,247.30
2017-10-18T03:09:07.239Z,861.30
2017-10-18T03:10:13.661Z,293.33
2017-10-18T03:11:16.218Z,275.85
2017-10-18T03:12:19.735Z,248.52
2017-10-18T03:13:22.352Z,272.17
2017-10-18T03:14:25.021Z,310.77
2017-10-18T03:15:27.590Z,403.73
2017-10-18T03:16:32.301Z,413.90
2017-10-18T03:17:34.814Z,355.65
2017-10-18T03:18:37.337Z,232.82
2017-10-18T03:19:39.826Z,242.02
2017-10-18T03:20:42.327Z,310.65
2017-10-18T03:21:44.917Z,176.20
2017-10-18T03:22:47.457Z,189.07
2017-10-18T03:23:50.075Z,234.70
2017-10-18T03:24:52.575Z,137.77
2017-10-18T03:25:55.136Z,145.68
2017-10-18T03:26:58.112Z,158.52
2017-10-18T03:28:00.693Z,170.68
2017-10-18T03:29:07.930Z,133.70
2017-10-18T03:30:10.417Z,158.90
2017-10-18T03:31:12.956Z,122.90
2017-10-18T03:32:15.524Z,122.30
2017-10-18T03:33:18.042Z,115.37
2017-10-18T03:34:20.541Z,105.90
2017-10-18T03:35:25.991Z,103.95
2017-10-18T03:36:28.557Z,109.93
2017-10-18T03:37:32.102Z,100.53
2017-10-18T03:38:34.620Z,106.65
2017-10-18T03:39:40.610Z,116.07
2017-10-18T03:40:43.153Z,106.35
2017-10-18T03:41:45.958Z,101.75
2017-10-18T03:42:49.384Z,106.80
2017-10-18T03:43:52.978Z,94.10
2017-10-18T03:44:55.545Z,104.47
2017-10-18T03:45:58.054Z,112.00
2017-10-18T03:47:00.582Z,131.05
2017-10-18T03:48:09.216Z,126.68
2017-10-18T03:49:22.937Z,122.95
2017-10-18T03:50:25.490Z,129.68
2017-10-18T03:51:30.164Z,130.40
2017-10-18T03:52:32.656Z,126.25
2017-10-18T03:53:36.122Z,128.87
2017-10-18T03:54:38.703Z,131.48
2017-10-18T03:55:44.061Z,136.80
2017-10-18T03:56:46.649Z,132.68
2017-10-18T03:57:49.268Z,136.73
2017-10-18T03:58:52.580Z,124.10
2017-10-18T03:59:56.285Z,128.48
2017-10-18T04:00:58.799Z,123.18
2017-10-18T04:02:01.414Z,124.93
2017-10-18T04:03:04.085Z,120.47
2017-10-18T04:04:06.630Z,115.37
2017-10-18T04:05:09.924Z,127.55
2017-10-18T04:06:13.311Z,108.72
2017-10-18T04:07:16.830Z,118.53
2017-10-18T04:08:20.718Z,139.23
2017-10-18T04:09:23.593Z,116.47
2017-10-18T04:10:26.108Z,111.28
2017-10-18T04:11:30.265Z,115.43
2017-10-18T04:12:34.961Z,106.35
2017-10-18T04:13:38.324Z,104.78
2017-10-18T04:14:42.776Z,100.72
2017-10-18T04:15:45.555Z,99.15
2017-10-18T04:16:48.635Z,127.10
2017-10-18T04:17:51.202Z,91.07
2017-10-18T04:18:53.788Z,102.35
2017-10-18T04:19:56.278Z,93.03
2017-10-18T04:20:58.845Z,102.30
2017-10-18T04:22:01.575Z,115.32
2017-10-18T04:23:04.207Z,113.30
2017-10-18T04:24:07.934Z,91.05
2017-10-18T04:25:10.501Z,103.35
2017-10-18T04:26:13.899Z,108.50
2017-10-18T04:27:17.732Z,99.10
2017-10-18T04:28:20.247Z,88.95
2017-10-18T04:29:22.755Z,104.12
2017-10-18T04:30:25.237Z,93.97
2017-10-18T04:31:28.880Z,89.95
2017-10-18T04:32:31.455Z,75.10
2017-10-18T04:33:33.961Z,96.53
2017-10-18T04:34:36.466Z,84.60
2017-10-18T04:35:39.745Z,103.47
2017-10-18T04:36:42.999Z,80.15
2017-10-18T04:37:45.615Z,80.70
2017-10-18T04:38:48.103Z,81.82
2017-10-18T04:39:50.632Z,108.95
2017-10-18T04:40:53.930Z,91.55
2017-10-18T04:41:57.513Z,95.50
2017-10-18T04:43:00.090Z,99.50
2017-10-18T04:44:07.167Z,93.62
2017-10-18T04:45:09.759Z,97.57
2017-10-18T04:46:13.747Z,96.15
2017-10-18T04:47:16.397Z,112.22
2017-10-18T04:48:19.076Z,104.95
2017-10-18T04:49:21.685Z,100.03
2017-10-18T04:50:25.379Z,117.20
2017-10-18T04:51:27.892Z,99.10
2017-10-18T04:52:31.495Z,111.35
2017-10-18T04:53:34.060Z,102.18
2017-10-18T04:54:36.565Z,109.15
2017-10-18T04:55:39.090Z,105.45
2017-10-18T04:56:42.888Z,108.70
2017-10-18T04:57:45.574Z,101.87
2017-10-18T04:58:48.213Z,104.50
2017-10-18T04:59:51.479Z,103.47
2017-10-18T05:00:55.117Z,104.75
2017-10-18T05:01:57.624Z,112.95
2017-10-18T05:03:00.117Z,120.05
2017-10-18T05:04:03.418Z,132.65
2017-10-18T05:05:06.084Z,110.43
2017-10-18T05:06:08.652Z,134.43
2017-10-18T05:07:11.181Z,117.43
2017-10-18T05:08:14.507Z,111.70
2017-10-18T05:09:17.173Z,113.22
2017-10-18T05:10:19.792Z,128.95
2017-10-18T05:11:22.509Z,123.03
2017-10-18T05:12:25.884Z,111.70
2017-10-18T05:13:29.495Z,97.65
2017-10-18T05:14:32.056Z,144.30
2017-10-18T05:15:34.568Z,133.50
2017-10-18T05:16:37.248Z,145.45
2017-10-18T05:17:39.743Z,117.82
2017-10-18T05:18:43.140Z,113.78
2017-10-18T05:19:45.799Z,126.12
2017-10-18T05:20:48.318Z,113.65
2017-10-18T05:21:50.918Z,137.40
2017-10-18T05:22:53.510Z,122.18
2017-10-18T05:23:56.102Z,135.60
2017-10-18T05:24:58.611Z,127.05
2017-10-18T05:26:01.129Z,134.93
2017-10-18T05:27:04.194Z,134.30
2017-10-18T05:28:06.696Z,135.57
2017-10-18T05:29:09.244Z,116.22
2017-10-18T05:30:11.857Z,140.35
2017-10-18T05:31:15.186Z,121.25
2017-10-18T05:32:17.693Z,123.18
2017-10-18T05:33:20.219Z,145.15
2017-10-18T05:34:22.725Z,133.55
2017-10-18T05:35:25.219Z,140.82
2017-10-18T05:36:28.489Z,150.35
2017-10-18T05:37:31.002Z,153.32
2017-10-18T05:38:33.560Z,158.77
2017-10-18T05:39:36.128Z,161.35
2017-10-18T05:40:38.681Z,165.55
2017-10-18T05:41:41.978Z,168.37
2017-10-18T05:42:44.551Z,177.27
2017-10-18T05:43:47.066Z,181.45
2017-10-18T05:44:49.679Z,160.15
2017-10-18T05:45:52.194Z,192.75
2017-10-18T05:46:54.714Z,160.93
2017-10-18T05:47:57.231Z,187.50
2017-10-18T05:48:59.747Z,167.75
2017-10-18T05:50:02.366Z,163.60
2017-10-18T05:51:04.875Z,159.65
2017-10-18T05:52:07.358Z,179.38
2017-10-18T05:53:09.858Z,180.10
2017-10-18T05:54:12.478Z,188.05
2017-10-18T05:55:16.692Z,214.85
2017-10-18T05:56:19.191Z,204.85
2017-10-18T05:57:21.806Z,209.35
2017-10-18T05:58:24.299Z,181.32
2017-10-18T05:59:26.820Z,201.52
2017-10-18T06:00:30.227Z,183.40
2017-10-18T06:01:33.818Z,209.93
2017-10-18T06:02:36.485Z,195.43
2017-10-18T06:03:39.055Z,179.07
2017-10-18T06:04:41.655Z,225.30
2017-10-18T06:05:44.168Z,199.62
2017-10-18T06:06:47.470Z,219.73
2017-10-18T06:07:50.038Z,195.52
2017-10-18T06:08:52.661Z,336.58
2017-10-18T06:09:55.278Z,198.23
2017-10-18T06:10:57.808Z,223.48
2017-10-18T06:12:02.311Z,223.55
2017-10-18T06:13:04.811Z,211.25
2017-10-18T06:14:08.067Z,312.92
2017-10-18T06:15:12.210Z,211.23
2017-10-18T06:16:14.781Z,233.05
2017-10-18T06:17:18.109Z,226.12
2017-10-18T06:18:21.512Z,197.43
2017-10-18T06:19:24.112Z,207.48
2017-10-18T06:20:27.703Z,208.70
2017-10-18T06:21:30.180Z,198.18
2017-10-18T06:22:32.696Z,197.50
2017-10-18T06:23:35.272Z,176.80
2017-10-18T06:24:38.583Z,174.27
2017-10-18T06:25:41.158Z,177.80
2017-10-18T06:26:44.947Z,136.65
2017-10-18T06:27:47.460Z,154.02
2017-10-18T06:28:49.985Z,157.27
2017-10-18T06:29:52.523Z,180.35
2017-10-18T06:30:55.900Z,203.77
2017-10-18T06:31:59.241Z,152.38
2017-10-18T06:33:01.754Z,192.23
2017-10-18T06:34:04.297Z,170.87
2017-10-18T06:35:08.955Z,149.68
2017-10-18T06:36:12.373Z,218.70
2017-10-18T06:37:15.342Z,191.65
2017-10-18T06:38:17.929Z,187.15
2017-10-18T06:39:20.495Z,225.07
2017-10-18T06:40:23.148Z,184.37
2017-10-18T06:41:26.851Z,228.37
2017-10-18T06:42:30.788Z,221.65
2017-10-18T06:43:37.592Z,170.27
2017-10-18T06:44:40.280Z,307.58
2017-10-18T06:45:42.777Z,377.85
2017-10-18T06:46:45.301Z,169.37
2017-10-18T06:47:47.819Z,236.10
2017-10-18T06:48:50.439Z,254.30
2017-10-18T06:49:53.621Z,184.32
2017-10-18T06:50:56.187Z,198.43
2017-10-18T06:52:15.624Z,177.32
2017-10-18T06:53:19.141Z,223.68
2017-10-18T06:54:21.713Z,191.85
2017-10-18T06:55:24.203Z,229.45
2017-10-18T06:56:27.716Z,153.68
2017-10-18T06:57:31.256Z,147.65
2017-10-18T06:58:33.786Z,229.38
2017-10-18T06:59:36.418Z,135.75
2017-10-18T07:00:39.064Z,154.45
2017-10-18T07:01:41.572Z,180.60
2017-10-18T07:02:45.110Z,137.73
2017-10-18T07:03:47.683Z,203.98
2017-10-18T07:04:50.253Z,141.00
2017-10-18T07:05:52.752Z,124.32
2017-10-18T07:06:55.271Z,120.50
2017-10-18T07:07:57.960Z,107.12
2017-10-18T07:09:00.464Z,95.62
2017-10-18T07:10:03.013Z,110.30
2017-10-18T07:11:05.503Z,99.37
2017-10-18T07:12:08.008Z,83.75
2017-10-18T07:13:10.758Z,75.78
2017-10-18T07:14:14.077Z,84.18
2017-10-18T07:15:16.741Z,73.12
2017-10-18T07:16:19.223Z,73.80
2017-10-18T07:17:22.059Z,99.90
2017-10-18T07:18:25.468Z,67.32
2017-10-18T07:19:28.387Z,75.93
2017-10-18T07:20:31.124Z,79.03
2017-10-18T07:21:34.087Z,107.57
2017-10-18T07:22:36.623Z,100.87
2017-10-18T07:23:41.479Z,107.90
2017-10-18T07:24:44.503Z,103.30
2017-10-18T07:25:47.234Z,154.30
2017-10-18T07:26:49.866Z,109.63
2017-10-18T07:27:54.011Z,88.45
2017-10-18T07:28:56.570Z,82.07
2017-10-18T07:29:59.960Z,87.18
2017-10-18T07:31:02.782Z,87.75
2017-10-18T07:32:05.637Z,119.75
2017-10-18T07:33:08.239Z,117.43
2017-10-18T07:34:13.105Z,75.10
2017-10-18T07:35:15.783Z,75.53
2017-10-18T07:36:18.672Z,90.57
2017-10-18T07:37:21.525Z,117.43
2017-10-18T07:38:24.501Z,74.50
2017-10-18T07:39:28.189Z,84.70
2017-10-18T07:40:31.033Z,70.07
2017-10-18T07:41:33.963Z,85.45
2017-10-18T07:42:38.753Z,74.10
2017-10-18T07:43:41.278Z,91.97
2017-10-18T07:44:47.731Z,55.92
2017-10-18T07:45:50.767Z,86.22
2017-10-18T07:46:53.395Z,86.03
2017-10-18T07:47:56.704Z,80.28
2017-10-18T07:48:59.307Z,63.72
2017-10-18T07:50:01.933Z,118.57
2017-10-18T07:51:06.222Z,93.78
2017-10-18T07:52:09.073Z,101.45
2017-10-18T07:53:12.419Z,69.87
2017-10-18T07:54:15.072Z,131.85
2017-10-18T07:55:18.743Z,92.35
2017-10-18T07:56:22.036Z,94.72
2017-10-18T07:57:27.850Z,72.07
2017-10-18T07:58:32.412Z,63.95
2017-10-18T07:59:36.685Z,65.57
2017-10-18T08:00:41.384Z,80.25
2017-10-18T08:02:58.003Z,62.75
2017-10-18T08:04:05.911Z,58.95
2017-10-18T08:05:09.734Z,47.45
2017-10-18T08:06:13.751Z,77.30
2017-10-18T08:07:16.433Z,68.80
2017-10-18T08:08:18.978Z,45.83
2017-10-18T08:09:21.555Z,46.08
2017-10-18T08:10:24.345Z,70.12
2017-10-18T08:11:26.815Z,41.60
2017-10-18T08:12:29.391Z,52.62
2017-10-18T08:13:31.885Z,48.58
2017-10-18T08:14:35.387Z,55.90
2017-10-18T08:15:38.638Z,56.00
2017-10-18T08:16:41.357Z,40.83
2017-10-18T08:17:43.848Z,65.12
2017-10-18T08:18:46.712Z,54.95
2017-10-18T08:19:49.235Z,59.15
2017-10-18T08:20:51.971Z,54.15
2017-10-18T08:21:54.498Z,83.47
2017-10-18T08:22:57.314Z,68.05
2017-10-18T08:23:59.939Z,56.15
2017-10-18T08:25:02.741Z,74.32
2017-10-18T08:26:05.384Z,63.10
2017-10-18T08:27:08.664Z,51.65
2017-10-18T08:28:11.238Z,49.58
2017-10-18T08:29:14.050Z,47.97
2017-10-18T08:30:16.778Z,45.60
2017-10-18T08:31:19.655Z,69.93
2017-10-18T08:32:22.146Z,49.15
2017-10-18T08:33:24.921Z,48.55
2017-10-18T08:34:27.585Z,39.15
2017-10-18T08:35:30.268Z,55.72
2017-10-18T08:36:33.609Z,58.20
2017-10-18T08:37:36.228Z,50.88
2017-10-18T08:38:38.712Z,47.70
2017-10-18T08:39:41.619Z,55.60
2017-10-18T08:40:44.356Z,60.60
2017-10-18T08:41:47.822Z,52.72
2017-10-18T08:42:50.308Z,49.63
2017-10-18T08:43:52.921Z,36.95
2017-10-18T08:44:55.427Z,53.45
2017-10-18T08:45:58.759Z,39.35
2017-10-18T08:47:01.245Z,52.28
2017-10-18T08:48:03.877Z,48.05
2017-10-18T08:49:09.863Z,37.17
2017-10-18T08:50:09.746Z,59.35
2017-10-18T08:51:12.295Z,68.18
2017-10-18T08:52:15.565Z,43.72
2017-10-18T08:53:18.973Z,41.30
2017-10-18T08:54:21.453Z,72.95
2017-10-18T08:55:24.224Z,54.17
2017-10-18T08:56:26.733Z,69.65
2017-10-18T08:57:30.224Z,39.90
2017-10-18T08:58:32.734Z,50.65
2017-10-18T08:59:35.407Z,75.35
2017-10-18T09:00:37.905Z,42.67
2017-10-18T09:01:40.410Z,55.55
2017-10-18T09:02:43.715Z,68.75
2017-10-18T09:03:46.228Z,42.40
2017-10-18T09:04:48.740Z,34.92
2017-10-18T09:05:52.145Z,125.32
2017-10-18T09:06:54.704Z,39.08
2017-10-18T09:07:57.235Z,39.08
2017-10-18T09:08:59.741Z,45.03
2017-10-18T09:10:02.260Z,41.70
2017-10-18T09:11:04.759Z,39.05
2017-10-18T09:12:07.388Z,38.70
2017-10-18T09:13:09.892Z,45.75
2017-10-18T09:14:12.440Z,42.10
2017-10-18T09:15:15.699Z,42.45
2017-10-18T09:16:18.214Z,39.28
2017-10-18T09:17:20.784Z,37.95
2017-10-18T09:18:23.341Z,37.30
2017-10-18T09:19:25.851Z,37.60
2017-10-18T09:20:28.433Z,39.00
2017-10-18T09:21:31.708Z,40.05
2017-10-18T09:22:35.190Z,37.58
2017-10-18T09:23:37.725Z,47.80
2017-10-18T09:24:40.247Z,42.53
2017-10-18T09:25:42.776Z,39.58
2017-10-18T09:26:45.337Z,47.92
2017-10-18T09:27:47.989Z,40.33
2017-10-18T09:28:50.551Z,39.47
2017-10-18T09:29:53.223Z,44.92
2017-10-18T09:30:55.995Z,40.88
2017-10-18T09:31:58.478Z,39.58
2017-10-18T09:33:00.971Z,38.28
2017-10-18T09:34:03.619Z,36.00
2017-10-18T09:35:06.159Z,38.15
2017-10-18T09:36:09.308Z,40.03
2017-10-18T09:37:11.847Z,38.22
2017-10-18T09:38:14.386Z,41.80
2017-10-18T09:39:16.888Z,43.00
2017-10-18T09:40:20.223Z,41.78
2017-10-18T09:41:22.927Z,37.53
2017-10-18T09:42:25.434Z,38.00
2017-10-18T09:43:28.694Z,34.83
2017-10-18T09:44:32.810Z,37.47
2017-10-18T09:45:35.373Z,39.35
2017-10-18T09:46:38.696Z,34.00
2017-10-18T09:47:41.262Z,35.78
2017-10-18T09:48:43.741Z,36.60
2017-10-18T09:49:46.293Z,39.63
2017-10-18T09:50:49.732Z,40.83
2017-10-18T09:51:52.353Z,42.15
2017-10-18T09:52:54.867Z,36.08
2017-10-18T09:53:57.361Z,40.05
2017-10-18T09:55:00.664Z,35.25
2017-10-18T09:56:03.233Z,35.60
2017-10-18T09:57:05.738Z,30.02
2017-10-18T09:58:08.262Z,35.80
2017-10-18T09:59:10.763Z,34.83
2017-10-18T10:00:13.774Z,36.05
2017-10-18T10:01:16.266Z,43.42
2017-10-18T10:02:19.863Z,37.05
2017-10-18T10:03:22.362Z,34.35
2017-10-18T10:04:24.903Z,37.33
2017-10-18T10:05:28.176Z,44.33
2017-10-18T10:06:30.679Z,35.50
2017-10-18T10:07:33.201Z,37.80
2017-10-18T10:08:35.705Z,41.55
2017-10-18T10:09:38.241Z,39.33
2017-10-18T10:10:42.138Z,40.70
2017-10-18T10:11:44.712Z,34.25
2017-10-18T10:12:47.274Z,34.80
2017-10-18T10:13:50.407Z,35.97
2017-10-18T10:14:54.402Z,38.20
2017-10-18T10:15:56.910Z,41.80
2017-10-18T10:16:59.408Z,36.25
2017-10-18T10:18:02.535Z,35.92
2017-10-18T10:19:05.815Z,37.53
2017-10-18T10:20:08.376Z,47.03
2017-10-18T10:21:10.854Z,37.15
2017-10-18T10:22:14.246Z,37.75
2017-10-18T10:23:17.499Z,34.90
2017-10-18T10:24:20.014Z,32.47
2017-10-18T10:25:22.509Z,36.35
2017-10-18T10:26:25.000Z,39.35
2017-10-18T10:27:27.670Z,44.00
2017-10-18T10:28:31.468Z,42.72
2017-10-18T10:29:34.620Z,41.05
2017-10-18T10:30:37.219Z,37.10
2017-10-18T10:31:40.656Z,35.10
2017-10-18T10:32:43.210Z,36.88
2017-10-18T10:33:45.700Z,39.20
2017-10-18T10:34:48.241Z,38.78
2017-10-18T10:35:50.761Z,37.13
2017-10-18T10:36:53.356Z,37.03
2017-10-18T10:37:56.694Z,38.08
2017-10-18T10:38:59.225Z,40.30
2017-10-18T10:40:01.803Z,42.65
2017-10-18T10:41:04.363Z,42.62
2017-10-18T10:42:07.133Z,41.40
2017-10-18T10:43:09.625Z,47.28
2017-10-18T10:44:12.167Z,48.03
2017-10-18T10:45:14.649Z,39.28
2017-10-18T10:46:17.299Z,44.08
2017-10-18T10:47:19.790Z,43.03
2017-10-18T10:48:22.311Z,43.60
2017-10-18T10:49:24.840Z,35.58
2017-10-18T10:50:27.338Z,40.08
2017-10-18T10:51:30.644Z,48.75
2017-10-18T10:52:34.520Z,42.03
2017-10-18T10:53:37.791Z,36.25
2017-10-18T10:54:41.107Z,42.08
2017-10-18T10:55:43.676Z,39.35
2017-10-18T10:56:46.242Z,37.72
2017-10-18T10:57:48.811Z,37.92
2017-10-18T10:58:51.332Z,38.08
2017-10-18T10:59:53.815Z,36.70
2017-10-18T11:00:57.124Z,35.60
2017-10-18T11:01:59.694Z,38.80
2017-10-18T11:03:02.259Z,33.80
2017-10-18T11:04:04.785Z,38.08
2017-10-18T11:05:07.391Z,35.00
2017-10-18T11:06:09.890Z,39.47
2017-10-18T11:07:12.400Z,32.33
2017-10-18T11:08:15.779Z,35.70
2017-10-18T11:09:19.053Z,33.95
2017-10-18T11:10:21.556Z,32.15
2017-10-18T11:11:24.127Z,31.65
2017-10-18T11:12:26.638Z,32.63
2017-10-18T11:13:29.162Z,30.65
2017-10-18T11:14:31.767Z,35.20
2017-10-18T11:15:34.295Z,29.58
2017-10-18T11:16:36.904Z,29.52
2017-10-18T11:17:39.402Z,33.50
2017-10-18T11:18:42.720Z,26.30
2017-10-18T11:19:45.271Z,22.02
2017-10-18T11:20:47.841Z,24.98
2017-10-18T11:21:50.339Z,22.67
2017-10-18T11:22:52.830Z,25.10
2017-10-18T11:23:55.312Z,27.65
2017-10-18T11:24:58.616Z,23.20
2017-10-18T11:26:01.133Z,23.35
2017-10-18T11:27:03.791Z,22.37
2017-10-18T11:28:06.283Z,26.35
2017-10-18T11:29:08.889Z,22.42
2017-10-18T11:30:12.470Z,23.70
2017-10-18T11:31:14.974Z,26.83
2017-10-18T11:32:17.494Z,27.50
2017-10-18T11:33:20.799Z,26.05
2017-10-18T11:34:23.311Z,29.12
2017-10-18T11:35:25.830Z,25.45
2017-10-18T11:36:28.319Z,24.55
2017-10-18T11:37:30.832Z,25.40
2017-10-18T11:38:34.137Z,26.27
2017-10-18T11:39:36.710Z,24.90
2017-10-18T11:40:39.229Z,27.02
2017-10-18T11:41:42.525Z,26.95
2017-10-18T11:42:45.845Z,25.73
2017-10-18T11:43:48.438Z,24.65
2017-10-18T11:44:50.959Z,22.58
2017-10-18T11:45:54.255Z,28.75
2017-10-18T11:46:56.829Z,24.50
2017-10-18T11:47:59.338Z,24.70
2017-10-18T11:49:01.845Z,27.52
2017-10-18T11:50:04.848Z,22.15
2017-10-18T11:51:07.360Z,29.92
2017-10-18T11:52:09.869Z,22.65
2017-10-18T11:53:12.965Z,27.37
2017-10-18T11:54:15.460Z,21.85
2017-10-18T11:55:18.003Z,31.23
2017-10-18T11:56:20.488Z,27.02
2017-10-18T11:57:22.986Z,20.73
2017-10-18T11:58:26.352Z,22.70
2017-10-18T11:59:28.958Z,28.30
2017-10-18T12:00:31.468Z,21.40
2017-10-18T12:01:33.968Z,19.90
2017-10-18T12:02:37.347Z,17.50
2017-10-18T12:03:40.627Z,23.95
2017-10-18T12:04:43.160Z,19.92
2017-10-18T12:05:45.687Z,25.10
2017-10-18T12:06:48.173Z,23.15
2017-10-18T12:07:51.947Z,19.55
2017-10-18T12:08:54.439Z,26.20
2017-10-18T12:09:56.993Z,17.73
2017-10-18T12:10:59.488Z,19.62
2017-10-18T12:12:01.987Z,22.27
2017-10-18T12:13:05.380Z,19.35
2017-10-18T12:14:07.861Z,19.10
2017-10-18T12:15:10.391Z,18.65
2017-10-18T12:16:12.944Z,19.15
2017-10-18T12:17:15.744Z,19.50
2017-10-18T12:18:19.034Z,25.33
2017-10-18T12:19:22.334Z,17.65
2017-10-18T12:20:24.864Z,20.42
2017-10-18T12:21:27.337Z,18.70
2017-10-18T12:22:30.605Z,20.42
2017-10-18T12:23:33.215Z,17.87
2017-10-18T12:24:35.952Z,17.90
2017-10-18T12:25:38.513Z,22.23
2017-10-18T12:26:41.000Z,19.90
2017-10-18T12:27:44.271Z,19.75
2017-10-18T12:28:48.596Z,21.35
2017-10-18T12:29:51.862Z,23.30
2017-10-18T12:30:55.280Z,21.52
2017-10-18T12:31:57.787Z,23.67
2017-10-18T12:33:01.299Z,19.83
2017-10-18T12:34:03.839Z,20.27
2017-10-18T12:35:06.387Z,17.87
2017-10-18T12:36:09.198Z,21.52
2017-10-18T12:37:11.703Z,22.90
2017-10-18T12:38:14.239Z,24.25
2017-10-18T12:39:17.525Z,24.20
2017-10-18T12:40:20.790Z,19.27
2017-10-18T12:41:23.405Z,18.02
2017-10-18T12:42:25.912Z,22.95
2017-10-18T12:43:28.378Z,22.02
2017-10-18T12:44:30.929Z,20.80
2017-10-18T12:45:34.476Z,23.38
2017-10-18T12:46:37.777Z,16.73
2017-10-18T12:47:40.347Z,21.98
2017-10-18T12:48:42.879Z,25.40
2017-10-18T12:49:45.400Z,21.17
2017-10-18T12:50:47.896Z,23.12
2017-10-18T12:51:50.391Z,21.85
2017-10-18T12:52:53.675Z,21.08
2017-10-18T12:53:56.937Z,15.93
2017-10-18T12:54:59.504Z,17.08
2017-10-18T12:56:02.038Z,16.52
2017-10-18T12:57:04.548Z,20.95
2017-10-18T12:58:07.833Z,18.83
2017-10-18T12:59:11.123Z,19.98
2017-10-18T13:00:14.430Z,21.67
2017-10-18T13:01:16.999Z,25.35
2017-10-18T13:02:19.542Z,21.20
2017-10-18T13:03:22.820Z,13.35
2017-10-18T13:04:27.146Z,19.70
2017-10-18T13:05:29.669Z,14.77
2017-10-18T13:06:32.285Z,18.30
2017-10-18T13:07:34.853Z,20.95
2017-10-18T13:08:37.394Z,20.17
2017-10-18T13:09:40.698Z,18.10
2017-10-18T13:10:43.266Z,21.85
2017-10-18T13:11:45.831Z,17.12
2017-10-18T13:12:48.358Z,25.25
2017-10-18T13:13:51.624Z,22.33
2017-10-18T13:14:54.255Z,25.65
2017-10-18T13:15:56.781Z,21.42
2017-10-18T13:16:59.382Z,23.45
2017-10-18T13:18:01.915Z,32.63
2017-10-18T13:19:04.420Z,27.25
2017-10-18T13:20:10.230Z,21.42
2017-10-18T13:21:12.782Z,21.42
2017-10-18T13:22:15.319Z,22.85
2017-10-18T13:23:17.868Z,19.67
2017-10-18T13:24:20.447Z,15.82
2017-10-18T13:25:22.942Z,20.88